Flight Track Log - Related Links

Times and Time Zones

All times are in EDT time to prevent confusion due to time zone crossing. See the N207JB flight status page for this flight to view local times or setup timezone preferences in your user account.

Time Position Orientation Groundspeed Altitude Reporting Facility
EDT Latitude Longitude Course Direction KTS MPH feet Rate Location/Type
Wed 06:47:57 AM 25.8978 -80.2128 84° East 261 300 2,000  Level Miami Center
Wed 06:48:21 AM 25.9089 -80.1783 70° East 240 276 2,000 492 Level Miami Center
Wed 06:48:58 AM 25.9514 -80.1542 27° Northeast 299 344 2,500 600 Climbing Miami Center
Wed 06:49:21 AM 25.9783 -80.1572 354° North 294 338 2,600 1,100 Climbing Miami Center
Wed 06:49:58 AM 26.0042 -80.2156 296° West 303 349 3,600 2,100 Climbing Miami Center
Wed 06:50:21 AM 26.0097 -80.2458 282° West 294 338 4,700 2,852 Climbing Miami Center
Wed 06:50:59 AM 26.0061 -80.3081 266° West 291 335 6,500 2,800 Climbing Miami Center
Wed 06:51:21 AM 26.0097 -80.3361 278° West 291 335 7,500 2,656 Climbing Miami Center
Wed 06:52:00 AM 26.0103 -80.4008 271° West 295 339 9,200 2,700 Climbing Miami Center
Wed 06:52:21 AM 26.0139 -80.4286 278° West 306 352 10,200 2,370 Climbing Miami Center
Wed 06:53:21 AM 26.0217 -80.5306 275° West 331 381 12,400 2,200 Climbing Miami Center
Wed 06:54:21 AM 26.0864 -80.6181 309° West 338 389 14,600 2,400 Climbing Miami Center
Wed 06:55:21 AM 26.1594 -80.6967 316° Northwest 351 404 17,200 2,250 Climbing Miami Center
Wed 06:56:21 AM 26.2411 -80.7689 322° Northwest 362 417 19,100 1,750 Climbing Miami Center
Wed 06:57:21 AM 26.3208 -80.8294 326° Northwest 374 430 20,700 1,600 Climbing Miami Center
Wed 06:58:21 AM 26.4214 -80.9000 328° Northwest 388 447 22,300 1,550 Climbing Miami Center
Wed 06:59:21 AM 26.5197 -80.9661 329° Northwest 400 460 23,800 1,400 Climbing Miami Center
Wed 07:00:21 AM 26.6139 -81.0319 328° Northwest 400 460 25,100 1,300 Climbing Miami Center
Wed 07:01:21 AM 26.7100 -81.1006 327° Northwest 405 466 26,400 1,300 Climbing Miami Center
Wed 07:02:21 AM 26.8083 -81.1692 328° Northwest 410 472 27,700 1,300 Climbing Miami Center
Wed 07:03:21 AM 26.9044 -81.2381 327° Northwest 410 472 29,000 1,150 Climbing Miami Center
Wed 07:04:21 AM 27.0022 -81.3094 327° Northwest 410 472 30,000 1,050 Climbing Miami Center
Wed 07:05:21 AM 27.0983 -81.3758 328° Northwest 410 472 31,100 950 Climbing Miami Center
Wed 07:06:21 AM 27.1964 -81.4475 327° Northwest 410 472 31,900 450 Climbing Miami Center
Wed 07:07:21 AM 27.2903 -81.5142 328° Northwest 422 486 32,000 50 Climbing Miami Center
Wed 07:08:21 AM 27.3964 -81.5886 328° Northwest 441 507 32,000  Level Miami Center
Wed 07:09:21 AM 27.5144 -81.6756 327° Northwest 455 524 32,000  Level Miami Center
Wed 07:10:21 AM 27.6247 -81.7528 328° Northwest 455 524 32,000  Level Miami Center
Wed 07:11:21 AM 27.7325 -81.8325 327° Northwest 461 531 32,000  Level Miami Center
Wed 07:12:21 AM 27.8303 -81.9025 328° Northwest 461 531 32,000  Level Miami Center
Wed 07:14:21 AM 28.0472 -82.0672 326° Northwest 466 536 32,000  Level Jacksonville Center
Wed 07:15:21 AM 28.1478 -82.1558 322° Northwest 466 536 32,000  Level Jacksonville Center
Wed 07:16:21 AM 28.2483 -82.2469 321° Northwest 460 529 32,000  Level Jacksonville Center
Wed 07:17:21 AM 28.3469 -82.3336 322° Northwest 460 529 32,000  Level Jacksonville Center
Wed 07:18:21 AM 28.4475 -82.4250 321° Northwest 460 529 32,000  Level Jacksonville Center
Wed 07:19:21 AM 28.5458 -82.5169 321° Northwest 460 529 32,000  Level Jacksonville Center
Wed 07:20:21 AM 28.6464 -82.6039 323° Northwest 460 529 32,000  Level Jacksonville Center
Wed 07:21:21 AM 28.7444 -82.6936 321° Northwest 460 529 32,000 -150 Level Jacksonville Center
Wed 07:22:21 AM 28.8428 -82.7858 321° Northwest 455 524 31,700 -850 Descending Jacksonville Center
Wed 07:23:21 AM 28.9408 -82.8761 321° Northwest 455 524 30,300 -1,450 Descending Jacksonville Center
Wed 07:24:21 AM 29.0431 -82.9661 322° Northwest 455 524 28,800 -1,450 Descending Jacksonville Center
Wed 07:25:21 AM 29.1392 -83.0567 321° Northwest 455 524 27,400 -1,450 Descending Jacksonville Center
Wed 07:26:21 AM 29.2392 -83.1447 322° Northwest 455 524 25,900 -1,500 Descending Jacksonville Center
Wed 07:27:21 AM 29.3369 -83.2356 321° Northwest 455 524 24,400 -1,500 Descending Jacksonville Center
Wed 07:28:21 AM 29.4328 -83.3242 321° Northwest 450 518 22,900 -1,200 Descending Jacksonville Center
Wed 07:29:21 AM 29.5306 -83.4153 321° Northwest 450 518 22,000 -750 Descending Jacksonville Center
Wed 07:30:21 AM 29.6261 -83.5042 321° Northwest 450 518 21,400 -1,550 Descending Jacksonville Center
Wed 07:31:21 AM 29.7258 -83.5958 321° Northwest 456 525 18,900 -2,450 Descending Jacksonville Center
Wed 07:32:21 AM 29.8319 -83.6947 321° Northwest 456 525 16,500 -2,450 Descending Jacksonville Center
Wed 07:33:21 AM 29.9211 -83.7769 321° Northwest 438 504 14,000 -2,450 Descending Jacksonville Center
Wed 07:34:21 AM 30.0039 -83.8544 321° Northwest 415 478 11,600 -2,300 Descending Jacksonville Center
Wed 07:35:21 AM 30.0806 -83.9272 321° Northwest 382 440 9,400 -2,050 Descending Jacksonville Center
Wed 07:36:21 AM 30.1533 -83.9928 322° Northwest 353 406 7,500 -1,900 Descending Jacksonville Center
Wed 07:37:21 AM 30.2089 -84.0583 314° West 320 368 5,600 -1,850 Descending Jacksonville Center
Wed 07:38:21 AM 30.2478 -84.1406 299° West 293 337 3,800 -1,350 Descending Jacksonville Center
Wed 07:39:21 AM 30.2889 -84.2083 305° West 286 329 2,900 3,600 Descending Jacksonville Center
Wed 07:40:21 AM 30.3300 -84.2861 301° West 286 329 11,000 4,050 Climbing Jacksonville Center
Wed 07:41:21 AM 30.3708 -84.3661 301° West 286 329 11,000  Level Jacksonville Center
Wed 07:43:00 AM 30.3967 -84.3509 180° South  Level Estimated
Wed 07:50:00 AM 30.3967 -84.3509 180° South  Level Estimated
Wed 07:51:00 AM 30.3967 -84.3509 180° South  Level Estimated

Login

Don't have an account? Register now (free) for customized features, flight alerts, and more!